createdAt,value
2023-02-18T00:03:24.865Z,971
2023-02-18T00:08:26.065Z,970.89
2023-02-18T00:13:27.827Z,970.84
2023-02-18T00:18:29.981Z,970.75
2023-02-18T00:23:31.951Z,970.85
2023-02-18T00:28:33.912Z,970.91
2023-02-18T00:33:35.948Z,970.94
2023-02-18T00:38:39.617Z,970.9
2023-02-18T00:43:39.318Z,970.86
2023-02-18T00:48:40.949Z,970.81
2023-02-18T00:53:42.456Z,970.84
2023-02-18T00:58:43.966Z,970.78
2023-02-18T01:03:45.296Z,970.74
2023-02-18T01:08:47.508Z,970.75
2023-02-18T01:13:49.539Z,970.77
2023-02-18T01:18:51.670Z,970.73
2023-02-18T01:23:53.673Z,970.72
2023-02-18T01:28:55.647Z,970.78
2023-02-18T01:33:56.869Z,970.67
2023-02-18T01:38:58.666Z,970.67
2023-02-18T01:44:00.418Z,970.6
2023-02-18T01:49:02.261Z,970.6
2023-02-18T01:54:03.442Z,970.67
2023-02-18T01:59:04.930Z,970.61
2023-02-18T02:04:06.197Z,970.67
2023-02-18T02:09:08.387Z,970.64
2023-02-18T02:14:09.738Z,970.56
2023-02-18T02:19:11.254Z,970.42
2023-02-18T02:24:13.100Z,970.41
2023-02-18T02:29:14.311Z,970.38
2023-02-18T02:34:16.068Z,970.39
2023-02-18T02:39:17.464Z,970.35
2023-02-18T02:44:19.324Z,970.32
2023-02-18T02:49:20.684Z,970.33
2023-02-18T02:54:22.207Z,970.18
2023-02-18T02:59:23.906Z,970.06
2023-02-18T03:04:25.647Z,970.09
2023-02-18T03:09:27.328Z,970.12
2023-02-18T03:14:28.740Z,970.12
2023-02-18T03:19:30.359Z,970.1
2023-02-18T03:24:32.296Z,970.05
2023-02-18T03:29:34.135Z,969.88
2023-02-18T03:34:35.484Z,969.89
2023-02-18T03:39:37.645Z,969.81
2023-02-18T03:44:39.286Z,969.9
2023-02-18T03:49:41.018Z,969.86
2023-02-18T03:54:42.419Z,969.88
2023-02-18T03:59:43.974Z,969.88
2023-02-18T04:04:45.416Z,969.93
2023-02-18T04:09:46.808Z,969.85
2023-02-18T04:14:48.545Z,969.88
2023-02-18T04:19:50.389Z,969.89
2023-02-18T04:24:51.685Z,969.9
2023-02-18T04:29:53.772Z,970.02
2023-02-18T04:34:55.690Z,970.01
2023-02-18T04:39:57.304Z,970.05
2023-02-18T05:00:05.311Z,970.26
2023-02-18T05:10:08.821Z,970.16
2023-02-18T05:20:11.689Z,970.15
2023-02-18T05:25:13.484Z,970.01
2023-02-18T05:45:20.202Z,969.95
2023-02-18T05:50:22.183Z,969.89
2023-02-18T05:55:24.023Z,969.83
2023-02-18T06:05:27.026Z,969.79
2023-02-18T06:10:28.160Z,969.9
2023-02-18T06:15:29.634Z,970.02
2023-02-18T06:20:31.024Z,970.09
2023-02-18T06:25:32.938Z,970.11
2023-02-18T06:30:35.073Z,970.21
2023-02-18T06:35:36.393Z,970.21
2023-02-18T06:40:37.758Z,970.09
2023-02-18T06:45:39.822Z,970.05
2023-02-18T06:50:43.045Z,970
2023-02-18T06:55:43.135Z,970.01
2023-02-18T07:00:45.061Z,970
2023-02-18T07:05:46.965Z,969.99
2023-02-18T07:10:48.602Z,969.94
2023-02-18T07:15:50.219Z,969.91
2023-02-18T07:20:52.175Z,969.93
2023-02-18T07:25:53.943Z,970.08
2023-02-18T07:30:55.902Z,970
2023-02-18T07:35:57.159Z,969.98
2023-02-18T07:40:58.542Z,969.9
2023-02-18T07:45:59.871Z,969.93
2023-02-18T07:51:01.222Z,969.91
2023-02-18T07:56:03.234Z,969.82
2023-02-18T08:01:04.868Z,969.65
2023-02-18T08:06:06.932Z,969.72
2023-02-18T08:11:18.286Z,969.68
2023-02-18T08:16:10.198Z,969.65
2023-02-18T08:21:11.262Z,969.65
2023-02-18T08:26:12.853Z,969.5
2023-02-18T08:31:14.815Z,969.49
2023-02-18T08:36:16.239Z,969.33
2023-02-18T08:41:18.095Z,969.24
2023-02-18T08:46:25.120Z,969.27
2023-02-18T08:51:21.920Z,969.21
2023-02-18T08:56:24.065Z,969.2
2023-02-18T09:01:25.503Z,969.15
2023-02-18T09:06:27.007Z,969.13
2023-02-18T09:11:29.066Z,969.12
2023-02-18T09:16:30.858Z,969.19
2023-02-18T09:21:32.647Z,969.17
2023-02-18T09:26:34.198Z,969.15
2023-02-18T09:31:36.021Z,969.17
2023-02-18T09:36:37.818Z,969.14
2023-02-18T09:41:39.178Z,969.03
2023-02-18T09:46:40.571Z,968.94
2023-02-18T09:51:42.636Z,968.82
2023-02-18T09:56:44.085Z,968.81
2023-02-18T10:01:46.257Z,968.72
2023-02-18T10:06:48.203Z,968.76
2023-02-18T10:11:56.632Z,968.67
2023-02-18T10:16:58.758Z,968.77
2023-02-18T10:22:00.055Z,968.66
2023-02-18T10:27:02.031Z,968.59
2023-02-18T10:32:04.064Z,968.56
2023-02-18T10:37:05.901Z,968.35
2023-02-18T10:42:08.084Z,968.17
2023-02-18T10:47:09.847Z,968
2023-02-18T10:52:11.816Z,967.85
2023-02-18T10:57:13.220Z,967.78
2023-02-18T11:02:14.765Z,967.69
2023-02-18T11:07:15.916Z,967.7
2023-02-18T11:12:18.021Z,967.74
2023-02-18T11:17:20.000Z,967.67
2023-02-18T11:22:21.824Z,967.91
2023-02-18T11:27:23.594Z,967.76
2023-02-18T11:32:25.784Z,967.69
2023-02-18T11:37:27.131Z,967.59
2023-02-18T11:42:28.989Z,967.59
2023-02-18T11:47:30.727Z,967.59
2023-02-18T11:52:31.851Z,967.36
2023-02-18T11:57:33.377Z,967.36
2023-02-18T12:02:34.901Z,967.36
2023-02-18T12:07:36.644Z,967.16
2023-02-18T12:12:38.488Z,967.27
2023-02-18T12:17:40.623Z,967.07
2023-02-18T12:22:42.306Z,966.96
2023-02-18T12:27:44.389Z,966.88
2023-02-18T12:32:46.383Z,966.81
2023-02-18T12:37:47.649Z,966.7
2023-02-18T12:42:48.942Z,966.72
2023-02-18T12:47:50.606Z,966.74
2023-02-18T12:52:52.397Z,966.75
2023-02-18T12:57:53.931Z,966.71
2023-02-18T13:02:56.056Z,966.71
2023-02-18T13:07:57.789Z,966.7
2023-02-18T13:12:59.966Z,966.62
2023-02-18T13:18:01.501Z,966.53
2023-02-18T13:23:02.685Z,966.67
2023-02-18T13:28:04.432Z,966.61
2023-02-18T13:33:06.345Z,966.55
2023-02-18T13:38:07.899Z,966.57
2023-02-18T13:43:09.472Z,966.36
2023-02-18T13:48:10.879Z,966.44
2023-02-18T13:53:12.547Z,966.46
2023-02-18T13:58:14.230Z,966.32
2023-02-18T14:03:15.433Z,966.28
2023-02-18T14:08:17.616Z,966.34
2023-02-18T14:13:18.823Z,966.35
2023-02-18T14:18:20.733Z,966.32
2023-02-18T14:23:21.874Z,966.4
2023-02-18T14:28:23.722Z,966.32
2023-02-18T14:33:25.356Z,966.35
2023-02-18T14:38:27.226Z,966.27
2023-02-18T14:43:29.111Z,966.32
2023-02-18T14:48:30.439Z,966.33
2023-02-18T14:53:31.633Z,966.3
2023-02-18T14:58:33.471Z,966.4
2023-02-18T15:03:35.417Z,966.4
2023-02-18T15:08:37.377Z,966.41
2023-02-18T15:13:38.916Z,966.39
2023-02-18T15:18:41.160Z,966.3
2023-02-18T15:23:42.697Z,966.38
2023-02-18T15:28:44.118Z,966.31
2023-02-18T15:33:45.649Z,966.24
2023-02-18T15:38:47.802Z,966.4
2023-02-18T15:43:48.922Z,966.42
2023-02-18T15:48:50.881Z,966.31
2023-02-18T15:53:52.272Z,966.35
2023-02-18T15:58:54.312Z,966.29
2023-02-18T16:03:55.647Z,966.31
2023-02-18T16:08:56.918Z,966.29
2023-02-18T16:13:59.056Z,966.24
2023-02-18T16:19:00.980Z,966.29
2023-02-18T16:24:02.415Z,966.29
2023-02-18T16:29:04.305Z,966.33
2023-02-18T16:34:06.291Z,966.24
2023-02-18T16:39:08.053Z,966.35
2023-02-18T16:44:09.348Z,966.36
2023-02-18T16:49:10.563Z,966.43
2023-02-18T16:54:12.693Z,966.48
2023-02-18T16:59:14.561Z,966.57
2023-02-18T17:04:16.462Z,966.6
2023-02-18T17:09:18.493Z,966.66
2023-02-18T17:14:20.494Z,966.7
2023-02-18T17:19:22.117Z,966.83
2023-02-18T17:24:23.621Z,966.8
2023-02-18T17:29:25.517Z,966.78
2023-02-18T17:34:27.024Z,966.69
2023-02-18T17:39:28.515Z,966.8
2023-02-18T17:44:30.620Z,966.8
2023-02-18T17:49:32.008Z,966.84
2023-02-18T17:54:33.657Z,966.81
2023-02-18T17:59:35.740Z,966.85
2023-02-18T18:04:37.927Z,966.77
2023-02-18T18:09:39.947Z,966.77
2023-02-18T18:14:41.856Z,966.84
2023-02-18T18:19:43.170Z,966.85
2023-02-18T18:24:44.547Z,966.82
2023-02-18T18:29:46.841Z,966.75
2023-02-18T18:34:49.211Z,966.82
2023-02-18T18:39:50.372Z,966.91
2023-02-18T18:44:52.409Z,966.9
2023-02-18T18:49:53.864Z,966.92
2023-02-18T18:54:55.389Z,966.99
2023-02-18T18:59:56.610Z,966.98
2023-02-18T19:35:07.972Z,967.32
2023-02-18T19:50:12.273Z,967.36
2023-02-18T19:55:13.568Z,967.41
2023-02-18T20:00:14.863Z,967.47
2023-02-18T20:05:16.313Z,967.56
2023-02-18T20:10:18.248Z,967.58
2023-02-18T20:15:20.350Z,967.6
2023-02-18T20:20:22.141Z,967.63
2023-02-18T20:25:24.212Z,967.62
2023-02-18T20:35:28.179Z,967.54
2023-02-18T20:40:29.842Z,967.6
2023-02-18T20:45:31.678Z,967.6
2023-02-18T20:50:33.594Z,967.59
2023-02-18T20:55:35.681Z,967.68
2023-02-18T21:00:37.122Z,967.62
2023-02-18T21:05:39.045Z,967.68
2023-02-18T21:10:40.912Z,967.63
2023-02-18T21:15:42.861Z,967.56
2023-02-18T21:20:44.016Z,967.63
2023-02-18T21:25:45.557Z,967.58
2023-02-18T21:30:47.004Z,967.57
2023-02-18T21:35:48.512Z,967.61
2023-02-18T21:40:49.914Z,967.64
2023-02-18T21:45:50.949Z,967.66
2023-02-18T21:50:53.153Z,967.56
2023-02-18T21:56:03.169Z,967.57
2023-02-18T22:00:56.898Z,967.46
2023-02-18T22:05:58.445Z,967.5
2023-02-18T22:10:59.866Z,967.41
2023-02-18T22:16:01.767Z,967.44
2023-02-18T22:21:03.101Z,967.4
2023-02-18T22:26:05.026Z,967.44
2023-02-18T22:31:06.505Z,967.39
2023-02-18T22:36:08.018Z,967.35
2023-02-18T22:41:09.591Z,967.35
2023-02-18T22:46:10.941Z,967.35
2023-02-18T22:51:12.309Z,967.35
2023-02-18T22:56:13.596Z,967.34
2023-02-18T23:11:45.826Z,967.25
2023-02-18T23:16:19.518Z,967.28
2023-02-18T23:21:21.273Z,967.25
2023-02-18T23:26:22.681Z,967.24
2023-02-18T23:31:24.970Z,967.26
2023-02-18T23:36:26.618Z,967.21
2023-02-18T23:41:28.204Z,967.18
2023-02-18T23:46:30.375Z,967.12
2023-02-18T23:51:32.488Z,967.11
2023-02-18T23:56:34.240Z,967.1
